sensor_id;sensor_type;location;lat;lon;timestamp;pressure;altitude;pressure_sealevel;temperature;humidity
22000;BME280;11164;48.818;2.322;2022-07-03T00:00:40;100942.44;;;19.67;32.13
22000;BME280;11164;48.818;2.322;2022-07-03T00:03:06;100937.66;;;19.58;32.36
22000;BME280;11164;48.818;2.322;2022-07-03T00:05:31;100929.09;;;19.71;32.08
22000;BME280;11164;48.818;2.322;2022-07-03T00:07:58;100927.28;;;19.77;32.08
22000;BME280;11164;48.818;2.322;2022-07-03T00:10:24;100928.19;;;19.65;32.38
22000;BME280;11164;48.818;2.322;2022-07-03T00:12:49;100929.09;;;19.71;32.16
22000;BME280;11164;48.818;2.322;2022-07-03T00:15:14;100921.91;;;19.65;32.38
22000;BME280;11164;48.818;2.322;2022-07-03T00:17:40;100930.34;;;19.63;31.99
22000;BME280;11164;48.818;2.322;2022-07-03T00:20:06;100926.81;;;19.63;32.36
22000;BME280;11164;48.818;2.322;2022-07-03T00:22:37;100926.34;;;19.71;32.30
22000;BME280;11164;48.818;2.322;2022-07-03T00:25:04;100922.03;;;19.75;32.10
22000;BME280;11164;48.818;2.322;2022-07-03T00:27:32;100925.53;;;19.87;32.03
22000;BME280;11164;48.818;2.322;2022-07-03T00:29:59;100926.75;;;19.80;32.12
22000;BME280;11164;48.818;2.322;2022-07-03T00:32:26;100927.53;;;19.75;32.17
22000;BME280;11164;48.818;2.322;2022-07-03T00:34:54;100921.75;;;19.55;32.21
22000;BME280;11164;48.818;2.322;2022-07-03T00:37:21;100912.09;;;19.30;32.73
22000;BME280;11164;48.818;2.322;2022-07-03T00:39:47;100922.34;;;19.40;32.37
22000;BME280;11164;48.818;2.322;2022-07-03T00:42:16;100920.16;;;19.59;32.20
22000;BME280;11164;48.818;2.322;2022-07-03T00:44:53;100919.34;;;19.41;32.49
22000;BME280;11164;48.818;2.322;2022-07-03T00:47:22;100919.53;;;19.35;32.39
22000;BME280;11164;48.818;2.322;2022-07-03T00:49:49;100931.47;;;19.45;32.25
22000;BME280;11164;48.818;2.322;2022-07-03T00:52:17;100933.63;;;19.26;32.65
22000;BME280;11164;48.818;2.322;2022-07-03T00:55:02;100936.44;;;19.31;32.54
22000;BME280;11164;48.818;2.322;2022-07-03T00:57:31;100940.41;;;19.41;32.20
22000;BME280;11164;48.818;2.322;2022-07-03T00:59:57;100931.88;;;19.37;32.47
22000;BME280;11164;48.818;2.322;2022-07-03T01:05:31;100935.28;;;19.44;32.78
22000;BME280;11164;48.818;2.322;2022-07-03T01:16:38;100933.53;;;19.38;32.11
22000;BME280;11164;48.818;2.322;2022-07-03T01:24:56;100937.72;;;18.95;33.37
22000;BME280;11164;48.818;2.322;2022-07-03T01:27:35;100944.66;;;19.03;32.82
22000;BME280;11164;48.818;2.322;2022-07-03T01:30:06;100934.09;;;19.06;32.74
22000;BME280;11164;48.818;2.322;2022-07-03T01:32:38;100938.31;;;18.97;32.41
22000;BME280;11164;48.818;2.322;2022-07-03T01:35:06;100927.22;;;19.04;32.47
22000;BME280;11164;48.818;2.322;2022-07-03T01:37:34;100946.59;;;19.02;32.63
22000;BME280;11164;48.818;2.322;2022-07-03T01:40:03;100938.44;;;18.90;32.60
22000;BME280;11164;48.818;2.322;2022-07-03T01:42:29;100941.69;;;19.04;32.67
22000;BME280;11164;48.818;2.322;2022-07-03T01:44:59;100935.66;;;19.02;32.31
22000;BME280;11164;48.818;2.322;2022-07-03T01:47:25;100933.28;;;19.06;32.41
22000;BME280;11164;48.818;2.322;2022-07-03T01:49:53;100936.72;;;19.01;32.68
22000;BME280;11164;48.818;2.322;2022-07-03T01:52:20;100939.38;;;18.96;32.69
22000;BME280;11164;48.818;2.322;2022-07-03T01:54:47;100939.09;;;18.81;32.48
22000;BME280;11164;48.818;2.322;2022-07-03T01:57:12;100933.06;;;18.96;32.50
22000;BME280;11164;48.818;2.322;2022-07-03T01:59:38;100931.13;;;18.79;32.44
22000;BME280;11164;48.818;2.322;2022-07-03T02:02:25;100934.47;;;18.98;33.19
22000;BME280;11164;48.818;2.322;2022-07-03T02:05:02;100927.75;;;18.89;32.85
22000;BME280;11164;48.818;2.322;2022-07-03T02:07:40;100930.00;;;18.92;32.72
22000;BME280;11164;48.818;2.322;2022-07-03T02:10:08;100938.78;;;18.94;32.18
22000;BME280;11164;48.818;2.322;2022-07-03T02:12:49;100929.09;;;18.86;32.67
22000;BME280;11164;48.818;2.322;2022-07-03T02:15:24;100932.06;;;18.85;32.55
22000;BME280;11164;48.818;2.322;2022-07-03T02:17:54;100925.03;;;18.89;32.27
22000;BME280;11164;48.818;2.322;2022-07-03T02:20:22;100934.72;;;18.80;32.26
22000;BME280;11164;48.818;2.322;2022-07-03T02:22:58;100930.31;;;18.79;32.26
22000;BME280;11164;48.818;2.322;2022-07-03T02:25:40;100935.25;;;18.65;32.57
22000;BME280;11164;48.818;2.322;2022-07-03T02:28:14;100931.13;;;18.62;32.61
22000;BME280;11164;48.818;2.322;2022-07-03T02:30:48;100932.56;;;18.53;32.86
22000;BME280;11164;48.818;2.322;2022-07-03T02:33:18;100929.94;;;18.58;32.90
22000;BME280;11164;48.818;2.322;2022-07-03T02:35:47;100921.97;;;18.56;32.91
22000;BME280;11164;48.818;2.322;2022-07-03T02:38:17;100931.03;;;18.57;32.68
22000;BME280;11164;48.818;2.322;2022-07-03T02:41:03;100933.78;;;18.45;34.05
22000;BME280;11164;48.818;2.322;2022-07-03T02:43:57;100940.09;;;18.34;33.75
22000;BME280;11164;48.818;2.322;2022-07-03T02:49:42;100934.91;;;18.21;33.88
22000;BME280;11164;48.818;2.322;2022-07-03T02:52:22;100942.13;;;18.27;34.21
22000;BME280;11164;48.818;2.322;2022-07-03T02:54:51;100935.59;;;18.40;33.18
22000;BME280;11164;48.818;2.322;2022-07-03T02:57:19;100947.78;;;18.49;32.57
22000;BME280;11164;48.818;2.322;2022-07-03T03:04:56;100941.66;;;18.42;33.39
22000;BME280;11164;48.818;2.322;2022-07-03T03:07:26;100944.66;;;18.28;34.40
22000;BME280;11164;48.818;2.322;2022-07-03T03:09:55;100948.22;;;18.17;33.78
22000;BME280;11164;48.818;2.322;2022-07-03T03:12:29;100952.22;;;18.26;33.94
22000;BME280;11164;48.818;2.322;2022-07-03T03:15:00;100954.63;;;18.11;34.27
22000;BME280;11164;48.818;2.322;2022-07-03T03:17:31;100952.78;;;17.88;34.74
22000;BME280;11164;48.818;2.322;2022-07-03T03:20:02;100957.88;;;17.84;34.83
22000;BME280;11164;48.818;2.322;2022-07-03T03:25:32;100957.13;;;18.00;34.55
22000;BME280;11164;48.818;2.322;2022-07-03T03:28:01;100958.69;;;17.96;34.89
22000;BME280;11164;48.818;2.322;2022-07-03T03:30:26;100958.94;;;17.95;34.67
22000;BME280;11164;48.818;2.322;2022-07-03T03:32:52;100944.00;;;17.86;34.71
22000;BME280;11164;48.818;2.322;2022-07-03T03:35:17;100933.56;;;17.71;35.06
22000;BME280;11164;48.818;2.322;2022-07-03T03:37:43;100953.13;;;17.91;34.85
22000;BME280;11164;48.818;2.322;2022-07-03T03:40:10;100950.16;;;17.81;35.10
22000;BME280;11164;48.818;2.322;2022-07-03T03:42:35;100943.88;;;17.80;35.16
22000;BME280;11164;48.818;2.322;2022-07-03T03:45:01;100948.25;;;17.70;35.46
22000;BME280;11164;48.818;2.322;2022-07-03T03:47:26;100943.06;;;17.56;35.56
22000;BME280;11164;48.818;2.322;2022-07-03T03:49:51;100951.59;;;17.60;35.25
22000;BME280;11164;48.818;2.322;2022-07-03T03:52:17;100943.03;;;17.68;35.51
22000;BME280;11164;48.818;2.322;2022-07-03T03:54:42;100953.84;;;17.63;35.76
22000;BME280;11164;48.818;2.322;2022-07-03T03:57:20;100945.06;;;17.61;35.94
22000;BME280;11164;48.818;2.322;2022-07-03T03:59:45;100953.25;;;17.73;35.72
22000;BME280;11164;48.818;2.322;2022-07-03T04:02:11;100948.25;;;17.70;35.49
22000;BME280;11164;48.818;2.322;2022-07-03T04:04:37;100954.56;;;17.70;35.18
22000;BME280;11164;48.818;2.322;2022-07-03T04:07:03;100959.75;;;17.84;35.22
22000;BME280;11164;48.818;2.322;2022-07-03T04:09:29;100957.63;;;17.62;35.47
22000;BME280;11164;48.818;2.322;2022-07-03T04:11:54;100956.88;;;17.43;36.12
22000;BME280;11164;48.818;2.322;2022-07-03T04:14:20;100966.16;;;17.54;35.78
22000;BME280;11164;48.818;2.322;2022-07-03T04:16:47;100951.84;;;17.70;35.78
22000;BME280;11164;48.818;2.322;2022-07-03T04:19:12;100969.03;;;17.94;35.48
22000;BME280;11164;48.818;2.322;2022-07-03T04:21:37;100964.84;;;18.04;35.44
22000;BME280;11164;48.818;2.322;2022-07-03T04:24:03;100972.09;;;17.98;35.40
22000;BME280;11164;48.818;2.322;2022-07-03T04:26:29;100976.94;;;17.96;35.57
22000;BME280;11164;48.818;2.322;2022-07-03T04:28:54;100981.47;;;17.90;35.70
22000;BME280;11164;48.818;2.322;2022-07-03T04:31:19;100966.19;;;17.77;35.92
22000;BME280;11164;48.818;2.322;2022-07-03T04:33:44;100975.06;;;17.73;35.94
22000;BME280;11164;48.818;2.322;2022-07-03T04:36:10;100973.03;;;17.80;35.88
22000;BME280;11164;48.818;2.322;2022-07-03T04:38:35;100980.06;;;17.76;35.82
22000;BME280;11164;48.818;2.322;2022-07-03T04:41:00;100985.84;;;17.79;35.59
22000;BME280;11164;48.818;2.322;2022-07-03T04:43:26;100981.09;;;17.87;35.88
22000;BME280;11164;48.818;2.322;2022-07-03T04:45:51;100990.69;;;18.01;35.49
22000;BME280;11164;48.818;2.322;2022-07-03T04:48:16;100990.56;;;18.19;35.19
22000;BME280;11164;48.818;2.322;2022-07-03T04:50:42;100990.81;;;18.30;35.19
22000;BME280;11164;48.818;2.322;2022-07-03T04:53:07;100994.19;;;18.49;35.18
22000;BME280;11164;48.818;2.322;2022-07-03T04:55:32;100989.16;;;18.69;34.76
22000;BME280;11164;48.818;2.322;2022-07-03T04:57:58;100990.91;;;18.47;35.54
22000;BME280;11164;48.818;2.322;2022-07-03T05:00:23;100995.69;;;18.28;35.45
22000;BME280;11164;48.818;2.322;2022-07-03T05:02:48;100989.84;;;18.36;35.41
22000;BME280;11164;48.818;2.322;2022-07-03T05:05:14;100990.25;;;18.56;35.25
22000;BME280;11164;48.818;2.322;2022-07-03T05:07:39;100991.41;;;18.72;35.10
22000;BME280;11164;48.818;2.322;2022-07-03T05:10:05;100995.09;;;18.66;35.51
22000;BME280;11164;48.818;2.322;2022-07-03T05:12:31;100998.84;;;18.48;35.57
22000;BME280;11164;48.818;2.322;2022-07-03T05:14:56;101001.16;;;18.56;35.94
22000;BME280;11164;48.818;2.322;2022-07-03T05:17:22;100998.81;;;18.89;35.26
22000;BME280;11164;48.818;2.322;2022-07-03T05:19:47;100992.47;;;19.00;35.26
22000;BME280;11164;48.818;2.322;2022-07-03T05:22:13;100995.06;;;19.07;35.90
22000;BME280;11164;48.818;2.322;2022-07-03T05:24:38;100994.09;;;19.30;35.42
22000;BME280;11164;48.818;2.322;2022-07-03T05:27:04;100964.78;;;19.59;34.66
22000;BME280;11164;48.818;2.322;2022-07-03T05:29:29;100984.16;;;20.14;34.07
22000;BME280;11164;48.818;2.322;2022-07-03T05:31:55;100994.22;;;20.30;34.33
22000;BME280;11164;48.818;2.322;2022-07-03T05:34:20;100993.25;;;19.80;34.95
22000;BME280;11164;48.818;2.322;2022-07-03T05:36:45;100995.31;;;19.90;35.20
22000;BME280;11164;48.818;2.322;2022-07-03T05:39:11;101008.69;;;19.86;35.18
22000;BME280;11164;48.818;2.322;2022-07-03T05:41:54;100998.66;;;19.75;35.32
22000;BME280;11164;48.818;2.322;2022-07-03T05:44:20;101002.88;;;20.00;34.81
22000;BME280;11164;48.818;2.322;2022-07-03T05:46:45;101004.56;;;19.84;35.43
22000;BME280;11164;48.818;2.322;2022-07-03T05:49:10;100999.38;;;20.04;35.27
22000;BME280;11164;48.818;2.322;2022-07-03T05:51:36;101007.00;;;20.02;35.28
22000;BME280;11164;48.818;2.322;2022-07-03T05:54:01;101007.13;;;19.91;35.51
22000;BME280;11164;48.818;2.322;2022-07-03T05:56:26;101011.22;;;19.76;35.69
22000;BME280;11164;48.818;2.322;2022-07-03T05:58:52;101003.88;;;19.60;36.13
22000;BME280;11164;48.818;2.322;2022-07-03T06:01:17;101006.03;;;19.41;36.24
22000;BME280;11164;48.818;2.322;2022-07-03T06:03:42;101011.16;;;19.37;36.29
22000;BME280;11164;48.818;2.322;2022-07-03T06:06:08;101011.66;;;19.34;36.58
22000;BME280;11164;48.818;2.322;2022-07-03T06:08:33;101019.19;;;19.61;36.42
22000;BME280;11164;48.818;2.322;2022-07-03T06:10:59;101008.16;;;19.73;36.07
22000;BME280;11164;48.818;2.322;2022-07-03T06:13:24;100988.53;;;19.93;35.71
22000;BME280;11164;48.818;2.322;2022-07-03T06:15:49;101017.88;;;19.97;35.98
22000;BME280;11164;48.818;2.322;2022-07-03T06:18:15;101015.31;;;19.74;35.98
22000;BME280;11164;48.818;2.322;2022-07-03T06:20:40;101018.78;;;19.69;36.41
22000;BME280;11164;48.818;2.322;2022-07-03T06:23:05;101015.47;;;20.01;36.10
22000;BME280;11164;48.818;2.322;2022-07-03T06:25:31;101034.50;;;19.91;36.32
22000;BME280;11164;48.818;2.322;2022-07-03T06:27:56;101029.50;;;19.87;36.33
22000;BME280;11164;48.818;2.322;2022-07-03T06:30:21;101029.16;;;19.67;36.76
22000;BME280;11164;48.818;2.322;2022-07-03T06:32:47;101036.53;;;19.66;36.82
22000;BME280;11164;48.818;2.322;2022-07-03T06:35:12;101035.03;;;20.10;36.17
22000;BME280;11164;48.818;2.322;2022-07-03T06:37:37;101029.09;;;20.18;36.14
22000;BME280;11164;48.818;2.322;2022-07-03T06:40:03;101019.16;;;20.29;36.17
22000;BME280;11164;48.818;2.322;2022-07-03T06:42:29;101021.34;;;20.32;36.03
22000;BME280;11164;48.818;2.322;2022-07-03T06:44:54;101020.22;;;20.28;36.01
22000;BME280;11164;48.818;2.322;2022-07-03T06:47:20;101029.69;;;20.42;35.87
22000;BME280;11164;48.818;2.322;2022-07-03T06:49:45;101026.22;;;20.47;36.04
22000;BME280;11164;48.818;2.322;2022-07-03T06:52:10;101035.56;;;20.51;35.85
22000;BME280;11164;48.818;2.322;2022-07-03T06:54:36;101035.19;;;20.42;36.19
22000;BME280;11164;48.818;2.322;2022-07-03T06:57:15;101025.53;;;20.56;36.23
22000;BME280;11164;48.818;2.322;2022-07-03T06:59:44;101030.75;;;21.07;35.35
22000;BME280;11164;48.818;2.322;2022-07-03T07:02:10;101030.50;;;21.09;35.29
22000;BME280;11164;48.818;2.322;2022-07-03T07:04:35;101033.16;;;20.76;35.83
22000;BME280;11164;48.818;2.322;2022-07-03T07:07:00;101031.78;;;20.74;36.03
22000;BME280;11164;48.818;2.322;2022-07-03T07:09:26;101032.09;;;21.05;35.63
22000;BME280;11164;48.818;2.322;2022-07-03T07:11:52;101030.97;;;21.00;35.55
22000;BME280;11164;48.818;2.322;2022-07-03T07:14:18;101030.75;;;21.07;35.37
22000;BME280;11164;48.818;2.322;2022-07-03T07:16:43;101034.31;;;21.08;35.49
22000;BME280;11164;48.818;2.322;2022-07-03T07:19:10;101037.94;;;21.13;35.55
22000;BME280;11164;48.818;2.322;2022-07-03T07:21:35;101040.09;;;21.33;35.24
22000;BME280;11164;48.818;2.322;2022-07-03T07:24:00;101040.16;;;21.16;35.51
22000;BME280;11164;48.818;2.322;2022-07-03T07:26:25;101035.81;;;20.93;35.76
22000;BME280;11164;48.818;2.322;2022-07-03T07:28:51;101046.66;;;21.05;35.67
22000;BME280;11164;48.818;2.322;2022-07-03T07:31:16;101042.66;;;21.18;35.55
22000;BME280;11164;48.818;2.322;2022-07-03T07:33:42;101037.09;;;21.35;35.31
22000;BME280;11164;48.818;2.322;2022-07-03T07:36:08;101048.50;;;21.54;35.07
22000;BME280;11164;48.818;2.322;2022-07-03T07:38:34;101055.03;;;21.48;35.30
22000;BME280;11164;48.818;2.322;2022-07-03T07:40:59;101042.47;;;21.57;35.02
22000;BME280;11164;48.818;2.322;2022-07-03T07:43:25;101044.22;;;22.01;34.30
22000;BME280;11164;48.818;2.322;2022-07-03T07:45:50;101046.59;;;22.35;33.82
22000;BME280;11164;48.818;2.322;2022-07-03T07:48:16;101042.41;;;22.22;34.07
22000;BME280;11164;48.818;2.322;2022-07-03T07:50:43;101034.22;;;21.89;34.81
22000;BME280;11164;48.818;2.322;2022-07-03T07:53:08;101045.25;;;21.95;34.80
22000;BME280;11164;48.818;2.322;2022-07-03T07:55:34;101043.63;;;21.99;34.58
22000;BME280;11164;48.818;2.322;2022-07-03T07:57:59;101051.50;;;22.27;34.31
22000;BME280;11164;48.818;2.322;2022-07-03T08:00:24;101037.75;;;22.22;34.10
22000;BME280;11164;48.818;2.322;2022-07-03T08:02:50;101031.03;;;22.61;33.81
22000;BME280;11164;48.818;2.322;2022-07-03T08:05:34;101041.53;;;22.11;34.15
22000;BME280;11164;48.818;2.322;2022-07-03T08:08:15;101046.19;;;22.10;34.38
22000;BME280;11164;48.818;2.322;2022-07-03T08:10:44;101048.22;;;22.30;34.21
22000;BME280;11164;48.818;2.322;2022-07-03T08:13:11;101053.16;;;22.28;34.00
22000;BME280;11164;48.818;2.322;2022-07-03T08:15:36;101046.66;;;21.65;35.25
22000;BME280;11164;48.818;2.322;2022-07-03T08:18:02;101042.25;;;21.64;34.84
22000;BME280;11164;48.818;2.322;2022-07-03T08:20:28;101036.28;;;21.72;34.74
22000;BME280;11164;48.818;2.322;2022-07-03T08:22:54;101038.00;;;22.21;34.00
22000;BME280;11164;48.818;2.322;2022-07-03T08:25:19;101046.38;;;22.46;33.89
22000;BME280;11164;48.818;2.322;2022-07-03T08:27:45;101031.94;;;22.19;34.02
22000;BME280;11164;48.818;2.322;2022-07-03T08:30:11;101041.72;;;22.52;33.79
22000;BME280;11164;48.818;2.322;2022-07-03T08:32:39;101042.97;;;22.24;33.70
22000;BME280;11164;48.818;2.322;2022-07-03T08:35:06;101040.09;;;21.66;34.64
22000;BME280;11164;48.818;2.322;2022-07-03T08:37:31;101048.88;;;21.68;34.58
22000;BME280;11164;48.818;2.322;2022-07-03T08:39:57;101049.28;;;21.82;34.25
22000;BME280;11164;48.818;2.322;2022-07-03T08:42:23;101037.03;;;21.95;34.09
22000;BME280;11164;48.818;2.322;2022-07-03T08:44:53;101045.78;;;22.39;33.17
22000;BME280;11164;48.818;2.322;2022-07-03T08:47:20;101038.63;;;22.38;33.64
22000;BME280;11164;48.818;2.322;2022-07-03T08:49:47;101036.63;;;22.18;33.53
22000;BME280;11164;48.818;2.322;2022-07-03T08:52:14;101034.09;;;21.36;34.55
22000;BME280;11164;48.818;2.322;2022-07-03T08:54:39;101031.41;;;22.17;33.14
22000;BME280;11164;48.818;2.322;2022-07-03T08:57:05;101037.63;;;22.02;33.36
22000;BME280;11164;48.818;2.322;2022-07-03T08:59:42;101035.50;;;22.14;33.36
22000;BME280;11164;48.818;2.322;2022-07-03T09:02:10;101037.91;;;22.05;33.45
22000;BME280;11164;48.818;2.322;2022-07-03T09:04:37;101031.00;;;22.56;32.60
22000;BME280;11164;48.818;2.322;2022-07-03T09:07:06;101038.72;;;22.59;32.59
22000;BME280;11164;48.818;2.322;2022-07-03T09:09:33;101036.06;;;22.74;32.79
22000;BME280;11164;48.818;2.322;2022-07-03T09:11:59;101037.34;;;22.51;32.85
22000;BME280;11164;48.818;2.322;2022-07-03T09:14:24;101024.56;;;22.82;32.44
22000;BME280;11164;48.818;2.322;2022-07-03T09:16:51;101019.63;;;22.95;32.35
22000;BME280;11164;48.818;2.322;2022-07-03T09:19:46;101038.34;;;23.08;31.77
22000;BME280;11164;48.818;2.322;2022-07-03T09:22:22;101031.03;;;22.61;32.89
22000;BME280;11164;48.818;2.322;2022-07-03T09:24:53;101027.53;;;22.65;32.93
22000;BME280;11164;48.818;2.322;2022-07-03T09:27:21;101027.13;;;22.41;33.12
22000;BME280;11164;48.818;2.322;2022-07-03T09:30:08;101031.09;;;22.66;32.61
22000;BME280;11164;48.818;2.322;2022-07-03T09:35:14;101029.97;;;22.62;32.77
22000;BME280;11164;48.818;2.322;2022-07-03T09:37:47;101026.63;;;22.55;33.03
22000;BME280;11164;48.818;2.322;2022-07-03T09:40:13;101029.78;;;22.79;32.76
22000;BME280;11164;48.818;2.322;2022-07-03T09:42:38;101025.63;;;22.81;32.50
22000;BME280;11164;48.818;2.322;2022-07-03T09:45:04;101027.81;;;22.74;32.56
22000;BME280;11164;48.818;2.322;2022-07-03T09:47:29;101031.16;;;22.92;32.44
22000;BME280;11164;48.818;2.322;2022-07-03T09:49:58;101030.69;;;23.20;32.15
22000;BME280;11164;48.818;2.322;2022-07-03T10:02:54;101041.16;;;23.70;31.62
22000;BME280;11164;48.818;2.322;2022-07-03T10:05:22;101033.97;;;24.10;31.23
22000;BME280;11164;48.818;2.322;2022-07-03T10:08:01;101032.25;;;24.29;30.70
22000;BME280;11164;48.818;2.322;2022-07-03T10:10:30;101051.09;;;23.50;32.30
22000;BME280;11164;48.818;2.322;2022-07-03T10:12:56;101053.78;;;23.19;32.23
22000;BME280;11164;48.818;2.322;2022-07-03T10:15:23;101038.09;;;23.20;32.17
22000;BME280;11164;48.818;2.322;2022-07-03T10:17:51;101045.84;;;23.49;32.00
22000;BME280;11164;48.818;2.322;2022-07-03T10:20:25;101043.91;;;23.34;32.12
22000;BME280;11164;48.818;2.322;2022-07-03T10:22:51;101053.06;;;22.66;33.16
22000;BME280;11164;48.818;2.322;2022-07-03T10:25:17;101045.97;;;22.75;32.62
22000;BME280;11164;48.818;2.322;2022-07-03T10:27:44;101056.28;;;23.31;32.21
22000;BME280;11164;48.818;2.322;2022-07-03T10:30:13;101051.34;;;23.95;31.08
22000;BME280;11164;48.818;2.322;2022-07-03T10:32:39;101049.69;;;23.32;31.87
22000;BME280;11164;48.818;2.322;2022-07-03T10:35:07;101044.19;;;23.42;32.31
22000;BME280;11164;48.818;2.322;2022-07-03T10:37:43;101051.06;;;24.02;30.82
22000;BME280;11164;48.818;2.322;2022-07-03T10:40:22;101049.41;;;23.85;31.45
22000;BME280;11164;48.818;2.322;2022-07-03T10:43:15;101045.53;;;23.19;32.69
22000;BME280;11164;48.818;2.322;2022-07-03T10:46:17;101050.53;;;23.43;32.27
22000;BME280;11164;48.818;2.322;2022-07-03T10:51:20;101054.38;;;23.37;31.94
22000;BME280;11164;48.818;2.322;2022-07-03T10:53:47;101051.09;;;23.50;31.75
22000;BME280;11164;48.818;2.322;2022-07-03T10:56:12;101057.13;;;24.04;31.23
22000;BME280;11164;48.818;2.322;2022-07-03T10:58:59;101060.00;;;24.48;29.93
22000;BME280;11164;48.818;2.322;2022-07-03T11:01:28;101048.81;;;24.14;30.75
22000;BME280;11164;48.818;2.322;2022-07-03T11:09:05;101056.03;;;23.38;31.91
22000;BME280;11164;48.818;2.322;2022-07-03T11:14:21;101057.84;;;22.91;32.15
22000;BME280;11164;48.818;2.322;2022-07-03T11:16:46;101055.38;;;22.90;31.97
22000;BME280;11164;48.818;2.322;2022-07-03T11:19:12;101048.84;;;23.32;31.49
22000;BME280;11164;48.818;2.322;2022-07-03T11:21:42;101051.91;;;23.92;30.97
22000;BME280;11164;48.818;2.322;2022-07-03T11:24:22;101052.19;;;23.95;30.82
22000;BME280;11164;48.818;2.322;2022-07-03T11:27:11;101046.09;;;23.83;30.98
22000;BME280;11164;48.818;2.322;2022-07-03T11:29:37;101049.41;;;23.49;31.61
22000;BME280;11164;48.818;2.322;2022-07-03T11:32:51;101045.84;;;23.54;32.07
22000;BME280;11164;48.818;2.322;2022-07-03T11:38:26;101048.78;;;24.24;31.05
22000;BME280;11164;48.818;2.322;2022-07-03T11:40:54;101047.13;;;24.33;30.75
22000;BME280;11164;48.818;2.322;2022-07-03T11:43:20;101036.91;;;24.39;30.78
22000;BME280;11164;48.818;2.322;2022-07-03T11:45:47;101048.19;;;24.43;30.62
22000;BME280;11164;48.818;2.322;2022-07-03T11:48:15;101040.03;;;23.86;31.26
22000;BME280;11164;48.818;2.322;2022-07-03T11:50:44;101048.59;;;23.59;31.72
22000;BME280;11164;48.818;2.322;2022-07-03T11:53:24;101044.19;;;23.73;31.15
22000;BME280;11164;48.818;2.322;2022-07-03T11:55:53;101042.22;;;24.10;30.62
22000;BME280;11164;48.818;2.322;2022-07-03T11:58:20;101033.28;;;24.54;30.00
22000;BME280;11164;48.818;2.322;2022-07-03T12:00:47;101021.06;;;24.70;29.95
22000;BME280;11164;48.818;2.322;2022-07-03T12:03:21;101019.63;;;24.78;29.64
22000;BME280;11164;48.818;2.322;2022-07-03T12:05:53;101028.66;;;24.29;30.24
22000;BME280;11164;48.818;2.322;2022-07-03T12:08:27;101023.69;;;24.36;28.93
22000;BME280;11164;48.818;2.322;2022-07-03T12:10:58;101022.63;;;24.22;29.15
22000;BME280;11164;48.818;2.322;2022-07-03T12:13:24;101013.59;;;24.76;29.14
22000;BME280;11164;48.818;2.322;2022-07-03T12:15:50;101016.97;;;25.07;28.83
22000;BME280;11164;48.818;2.322;2022-07-03T12:18:16;101023.84;;;25.15;28.54
22000;BME280;11164;48.818;2.322;2022-07-03T12:20:41;101019.44;;;24.64;29.27
22000;BME280;11164;48.818;2.322;2022-07-03T12:23:07;101007.56;;;24.69;28.99
22000;BME280;11164;48.818;2.322;2022-07-03T12:25:41;101017.81;;;24.63;28.81
22000;BME280;11164;48.818;2.322;2022-07-03T12:28:08;101020.94;;;24.31;29.17
22000;BME280;11164;48.818;2.322;2022-07-03T12:30:36;101012.28;;;24.63;28.71
22000;BME280;11164;48.818;2.322;2022-07-03T12:33:02;101011.63;;;24.82;27.95
22000;BME280;11164;48.818;2.322;2022-07-03T12:35:29;101004.47;;;25.25;27.51
22000;BME280;11164;48.818;2.322;2022-07-03T12:37:54;101007.69;;;25.38;27.41
22000;BME280;11164;48.818;2.322;2022-07-03T12:40:20;101007.84;;;25.12;27.22
22000;BME280;11164;48.818;2.322;2022-07-03T12:42:50;100989.69;;;24.66;27.75
22000;BME280;11164;48.818;2.322;2022-07-03T12:45:21;100999.84;;;24.01;28.79
22000;BME280;11164;48.818;2.322;2022-07-03T12:47:57;100994.41;;;24.55;27.42
22000;BME280;11164;48.818;2.322;2022-07-03T12:50:23;101007.91;;;25.02;26.84
22000;BME280;11164;48.818;2.322;2022-07-03T12:53:09;101000.84;;;24.90;24.54
22000;BME280;11164;48.818;2.322;2022-07-03T12:55:34;101005.00;;;24.83;26.67
22000;BME280;11164;48.818;2.322;2022-07-03T12:58:26;101007.75;;;24.83;25.08
22000;BME280;11164;48.818;2.322;2022-07-03T13:01:33;101004.63;;;25.00;25.77
22000;BME280;11164;48.818;2.322;2022-07-03T13:04:01;100987.47;;;25.08;26.59
22000;BME280;11164;48.818;2.322;2022-07-03T13:06:27;100990.47;;;26.04;25.63
22000;BME280;11164;48.818;2.322;2022-07-03T13:08:54;100996.50;;;26.31;25.30
22000;BME280;11164;48.818;2.322;2022-07-03T13:11:35;101003.47;;;26.52;23.29
22000;BME280;11164;48.818;2.322;2022-07-03T13:14:14;101001.09;;;26.65;24.86
22000;BME280;11164;48.818;2.322;2022-07-03T13:19:27;100998.00;;;26.47;25.20
22000;BME280;11164;48.818;2.322;2022-07-03T13:21:56;100996.88;;;26.48;25.16
22000;BME280;11164;48.818;2.322;2022-07-03T13:24:22;100986.59;;;26.54;25.25
22000;BME280;11164;48.818;2.322;2022-07-03T13:26:49;100998.53;;;26.01;25.69
22000;BME280;11164;48.818;2.322;2022-07-03T13:29:16;101000.34;;;25.87;25.87
22000;BME280;11164;48.818;2.322;2022-07-03T13:31:42;100990.53;;;25.99;25.54
22000;BME280;11164;48.818;2.322;2022-07-03T13:34:07;100993.81;;;26.88;24.89
22000;BME280;11164;48.818;2.322;2022-07-03T13:36:33;100990.94;;;27.50;24.24
22000;BME280;11164;48.818;2.322;2022-07-03T13:38:58;100980.44;;;27.47;24.42
22000;BME280;11164;48.818;2.322;2022-07-03T13:41:24;100995.41;;;27.65;24.16
22000;BME280;11164;48.818;2.322;2022-07-03T13:43:51;100986.44;;;26.45;25.20
22000;BME280;11164;48.818;2.322;2022-07-03T13:46:19;100985.00;;;25.99;25.41
22000;BME280;11164;48.818;2.322;2022-07-03T13:48:47;100988.34;;;25.96;25.36
22000;BME280;11164;48.818;2.322;2022-07-03T13:51:12;100985.97;;;26.33;25.16
22000;BME280;11164;48.818;2.322;2022-07-03T13:53:37;100985.59;;;26.64;24.68
22000;BME280;11164;48.818;2.322;2022-07-03T13:56:03;100990.31;;;27.20;24.17